createdAt,value
2022-11-25T00:01:28.269Z,106.00
2022-11-25T00:03:57.842Z,112.30
2022-11-25T00:06:33.295Z,116.57
2022-11-25T00:09:11.489Z,102.00
2022-11-25T00:11:41.679Z,109.10
2022-11-25T00:14:13.084Z,108.15
2022-11-25T00:16:43.772Z,106.43
2022-11-25T00:19:15.048Z,103.22
2022-11-25T00:21:42.032Z,104.75
2022-11-25T00:24:09.121Z,109.57
2022-11-25T00:26:36.915Z,108.97
2022-11-25T00:29:07.467Z,111.22
2022-11-25T00:31:37.363Z,109.10
2022-11-25T00:34:04.768Z,100.00
2022-11-25T00:36:38.042Z,77.03
2022-11-25T00:39:11.325Z,89.90
2022-11-25T00:41:57.324Z,65.03
2022-11-25T00:44:37.762Z,71.65
2022-11-25T00:47:10.386Z,67.13
2022-11-25T00:49:43.591Z,72.47
2022-11-25T00:52:15.810Z,74.78
2022-11-25T00:57:14.964Z,65.72
2022-11-25T00:59:42.011Z,60.63
2022-11-25T01:02:11.243Z,60.35
2022-11-25T01:04:38.687Z,59.13
2022-11-25T01:07:06.226Z,58.42
2022-11-25T01:09:33.308Z,52.13
2022-11-25T01:12:00.516Z,53.60
2022-11-25T01:14:30.457Z,50.75
2022-11-25T01:16:57.521Z,49.67
2022-11-25T01:19:24.711Z,48.10
2022-11-25T01:21:57.238Z,42.38
2022-11-25T01:24:26.766Z,41.05
2022-11-25T01:26:57.050Z,42.05
2022-11-25T01:29:24.357Z,43.58
2022-11-25T01:31:54.387Z,41.65
2022-11-25T01:34:25.212Z,45.50
2022-11-25T01:36:52.174Z,46.38
2022-11-25T01:39:31.672Z,50.80
2022-11-25T01:42:00.173Z,45.88
2022-11-25T01:44:30.453Z,48.60
2022-11-25T01:47:12.500Z,46.00
2022-11-25T01:50:02.564Z,45.13
2022-11-25T01:52:38.761Z,42.22
2022-11-25T01:55:29.842Z,46.22
2022-11-25T01:58:14.721Z,44.15
2022-11-25T02:00:42.341Z,52.88
2022-11-25T02:03:10.315Z,48.13
2022-11-25T02:05:41.950Z,45.67
2022-11-25T02:08:13.193Z,48.15
2022-11-25T02:10:40.372Z,47.83
2022-11-25T02:13:09.875Z,49.28
2022-11-25T02:15:37.599Z,47.08
2022-11-25T02:18:05.518Z,45.28
2022-11-25T02:20:32.650Z,46.05
2022-11-25T02:23:11.931Z,53.28
2022-11-25T02:25:41.458Z,54.35
2022-11-25T02:28:24.435Z,50.63
2022-11-25T02:30:52.092Z,53.75
2022-11-25T02:33:20.671Z,51.10
2022-11-25T02:35:59.159Z,66.38
2022-11-25T02:38:42.875Z,55.30
2022-11-25T02:41:19.726Z,63.10
2022-11-25T02:43:47.296Z,56.53
2022-11-25T02:46:22.131Z,51.30
2022-11-25T02:51:42.184Z,43.92
2022-11-25T02:54:09.582Z,43.75
2022-11-25T02:56:37.443Z,44.17
2022-11-25T02:59:04.740Z,43.97
2022-11-25T03:01:32.692Z,43.20
2022-11-25T03:04:00.146Z,45.00
2022-11-25T03:06:27.951Z,46.45
2022-11-25T03:08:55.242Z,47.38
2022-11-25T03:11:42.375Z,43.58
2022-11-25T03:14:09.441Z,39.80
2022-11-25T03:16:36.541Z,43.35
2022-11-25T03:19:06.195Z,47.05
2022-11-25T03:21:33.245Z,44.25
2022-11-25T03:24:00.791Z,48.65
2022-11-25T03:26:27.788Z,47.20
2022-11-25T03:28:55.412Z,51.03
2022-11-25T03:31:22.447Z,43.97
2022-11-25T03:33:52.024Z,46.92
2022-11-25T03:36:19.091Z,46.70
2022-11-25T03:38:46.055Z,50.00
2022-11-25T03:41:15.194Z,46.60
2022-11-25T03:43:42.215Z,47.17
2022-11-25T03:46:09.475Z,46.55
2022-11-25T03:48:39.262Z,44.97
2022-11-25T03:51:06.455Z,48.17
2022-11-25T03:53:33.609Z,50.92
2022-11-25T03:56:00.806Z,47.40
2022-11-25T03:58:28.021Z,50.35
2022-11-25T04:00:55.362Z,48.70
2022-11-25T04:03:22.422Z,46.83
2022-11-25T04:05:49.514Z,46.85
2022-11-25T04:08:17.087Z,47.80
2022-11-25T04:10:44.121Z,46.30
2022-11-25T04:13:13.653Z,48.47
2022-11-25T04:15:48.580Z,43.83
2022-11-25T04:18:17.602Z,45.90
2022-11-25T04:20:45.611Z,42.35
2022-11-25T04:23:13.832Z,43.65
2022-11-25T04:25:44.788Z,44.45
2022-11-25T04:28:14.144Z,44.28
2022-11-25T04:30:41.344Z,42.88
2022-11-25T04:33:10.980Z,44.53
2022-11-25T04:35:37.997Z,43.83
2022-11-25T04:38:05.082Z,40.25
2022-11-25T04:40:32.185Z,44.45
2022-11-25T04:43:04.698Z,49.70
2022-11-25T04:45:58.626Z,47.20
2022-11-25T04:48:21.776Z,55.13
2022-11-25T04:50:48.794Z,59.28
2022-11-25T04:53:15.791Z,63.40
2022-11-25T04:55:42.881Z,63.13
2022-11-25T04:58:11.587Z,62.13
2022-11-25T05:00:41.449Z,61.10
2022-11-25T05:03:08.599Z,60.45
2022-11-25T05:05:37.875Z,54.92
2022-11-25T05:08:05.210Z,69.18
2022-11-25T05:10:34.666Z,58.13
2022-11-25T05:13:01.701Z,62.45
2022-11-25T05:15:28.795Z,56.83
2022-11-25T05:17:55.845Z,63.67
2022-11-25T05:20:22.851Z,66.53
2022-11-25T05:22:50.002Z,65.47
2022-11-25T05:25:17.216Z,69.32
2022-11-25T05:27:44.582Z,70.07
2022-11-25T05:30:12.032Z,68.95
2022-11-25T05:32:41.655Z,61.70
2022-11-25T05:35:09.182Z,73.93
2022-11-25T05:37:38.335Z,72.65
2022-11-25T05:40:06.315Z,71.38
2022-11-25T05:42:33.663Z,65.63
2022-11-25T05:45:02.145Z,63.35
2022-11-25T05:47:29.402Z,63.65
2022-11-25T05:49:56.473Z,63.63
2022-11-25T05:52:23.601Z,67.45
2022-11-25T05:54:55.731Z,67.43
2022-11-25T05:57:24.218Z,65.43
2022-11-25T05:59:51.402Z,75.43
2022-11-25T06:02:18.611Z,67.40
2022-11-25T06:04:45.730Z,67.45
2022-11-25T06:07:15.800Z,83.55
2022-11-25T06:09:42.905Z,67.32
2022-11-25T06:12:09.952Z,69.05
2022-11-25T06:14:37.185Z,64.68
2022-11-25T06:17:04.764Z,57.80
2022-11-25T06:19:34.131Z,56.00
2022-11-25T06:22:01.117Z,55.78
2022-11-25T06:24:28.169Z,61.13
2022-11-25T06:26:55.374Z,59.70
2022-11-25T06:29:22.475Z,60.28
2022-11-25T06:31:50.636Z,60.63
2022-11-25T06:34:17.848Z,60.47
2022-11-25T06:36:44.899Z,64.35
2022-11-25T06:39:11.974Z,58.35
2022-11-25T06:41:39.201Z,60.47
2022-11-25T06:44:06.388Z,65.93
2022-11-25T06:46:33.918Z,67.65
2022-11-25T06:49:01.091Z,63.63
2022-11-25T06:51:28.151Z,62.28
2022-11-25T06:53:55.342Z,63.42
2022-11-25T06:56:25.973Z,70.18
2022-11-25T06:58:56.150Z,65.28
2022-11-25T07:01:27.336Z,71.15
2022-11-25T07:04:04.463Z,88.17
2022-11-25T07:06:33.508Z,82.82
2022-11-25T07:09:01.815Z,81.35
2022-11-25T07:11:36.155Z,82.32
2022-11-25T07:14:11.613Z,80.93
2022-11-25T07:16:43.683Z,87.55
2022-11-25T07:19:14.064Z,88.38
2022-11-25T07:21:43.424Z,78.07
2022-11-25T07:24:11.637Z,77.22
2022-11-25T07:26:40.018Z,75.25
2022-11-25T07:29:36.357Z,76.30
2022-11-25T07:32:02.425Z,73.97
2022-11-25T07:34:31.846Z,75.40
2022-11-25T07:36:58.889Z,64.28
2022-11-25T07:39:26.040Z,73.82
2022-11-25T07:41:54.447Z,73.95
2022-11-25T07:44:21.976Z,79.88
2022-11-25T07:46:50.835Z,77.82
2022-11-25T07:49:21.374Z,76.53
2022-11-25T07:52:05.133Z,79.68
2022-11-25T07:54:34.464Z,68.63
2022-11-25T07:57:03.980Z,70.97
2022-11-25T07:59:31.099Z,70.13
2022-11-25T08:01:58.245Z,73.10
2022-11-25T08:04:27.782Z,74.57
2022-11-25T08:06:57.150Z,76.82
2022-11-25T08:09:25.343Z,69.95
2022-11-25T08:11:55.450Z,80.45
2022-11-25T08:14:25.960Z,79.53
2022-11-25T08:16:53.008Z,72.68
2022-11-25T08:19:20.061Z,74.07
2022-11-25T08:21:50.327Z,72.50
2022-11-25T08:24:20.922Z,70.65
2022-11-25T08:26:48.566Z,71.15
2022-11-25T08:29:18.980Z,64.65
2022-11-25T08:31:46.188Z,71.75
2022-11-25T08:34:14.553Z,68.95
2022-11-25T08:36:47.803Z,67.07
2022-11-25T08:42:06.051Z,77.90
2022-11-25T08:44:37.501Z,73.20
2022-11-25T08:47:04.834Z,70.28
2022-11-25T08:49:37.490Z,66.80
2022-11-25T08:52:07.827Z,64.15
2022-11-25T08:54:34.982Z,60.42
2022-11-25T08:57:02.055Z,62.70
2022-11-25T08:59:29.189Z,65.38
2022-11-25T09:01:56.311Z,77.20
2022-11-25T09:04:23.461Z,68.03
2022-11-25T09:06:50.628Z,59.63
2022-11-25T09:09:17.683Z,59.88
2022-11-25T09:11:45.063Z,68.10
2022-11-25T09:14:12.411Z,67.00
2022-11-25T09:16:39.882Z,62.05
2022-11-25T09:19:07.016Z,63.75
2022-11-25T09:21:34.169Z,63.03
2022-11-25T09:24:04.248Z,61.42
2022-11-25T09:26:35.939Z,60.70
2022-11-25T09:29:03.840Z,63.80
2022-11-25T09:31:31.150Z,54.13
2022-11-25T09:33:58.293Z,68.88
2022-11-25T09:36:25.616Z,59.88
2022-11-25T09:38:53.235Z,56.95
2022-11-25T09:42:17.564Z,54.92
2022-11-25T09:45:15.056Z,57.95
2022-11-25T09:47:47.487Z,64.43
2022-11-25T09:50:47.701Z,68.32
2022-11-25T09:53:32.960Z,61.45
2022-11-25T09:56:04.628Z,68.07
2022-11-25T09:58:58.713Z,66.68
2022-11-25T10:01:29.946Z,59.25
2022-11-25T10:04:10.421Z,66.25
2022-11-25T10:07:03.062Z,62.90
2022-11-25T10:12:25.433Z,67.45
2022-11-25T10:14:54.099Z,63.78
2022-11-25T10:17:42.018Z,60.40
2022-11-25T10:20:24.703Z,58.95
2022-11-25T10:23:10.747Z,56.65
2022-11-25T10:25:46.960Z,54.70
2022-11-25T10:28:30.207Z,55.63
2022-11-25T10:31:19.321Z,50.45
2022-11-25T10:33:49.525Z,67.88
2022-11-25T10:36:34.257Z,58.72
2022-11-25T10:39:39.404Z,58.90
2022-11-25T10:42:23.622Z,49.63
2022-11-25T10:44:51.331Z,62.42
2022-11-25T10:47:36.778Z,59.53
2022-11-25T10:53:26.463Z,58.55
2022-11-25T10:56:04.568Z,57.40
2022-11-25T10:58:34.650Z,59.75
2022-11-25T11:01:21.338Z,60.80
2022-11-25T11:04:15.168Z,57.10
2022-11-25T11:06:45.583Z,66.90
2022-11-25T11:09:35.506Z,66.95
2022-11-25T11:12:27.798Z,77.68
2022-11-25T11:15:45.363Z,74.32
2022-11-25T11:18:29.810Z,78.35
2022-11-25T11:21:00.525Z,79.15
2022-11-25T11:23:29.969Z,80.07
2022-11-25T11:26:06.445Z,66.50
2022-11-25T11:28:39.101Z,71.60
2022-11-25T11:31:41.775Z,73.60
2022-11-25T11:37:19.953Z,80.22
2022-11-25T11:40:18.035Z,79.95
2022-11-25T11:42:56.837Z,88.20
2022-11-25T11:45:44.561Z,81.10
2022-11-25T11:49:02.566Z,86.43
2022-11-25T11:52:11.514Z,84.78
2022-11-25T11:54:52.615Z,83.47
2022-11-25T11:57:28.638Z,88.70
2022-11-25T11:59:56.321Z,80.88
2022-11-25T12:02:42.112Z,77.63
2022-11-25T12:05:12.020Z,70.45
2022-11-25T12:07:51.087Z,81.55
2022-11-25T12:10:38.439Z,77.93
2022-11-25T12:13:45.576Z,87.15
2022-11-25T12:16:53.022Z,83.15
2022-11-25T12:19:44.446Z,91.07
2022-11-25T12:22:42.526Z,89.55
2022-11-25T12:25:38.281Z,87.30
2022-11-25T12:28:20.963Z,89.78
2022-11-25T12:31:09.148Z,92.50
2022-11-25T12:33:42.026Z,83.07
2022-11-25T12:36:31.032Z,93.78
2022-11-25T12:39:09.451Z,94.32
2022-11-25T12:41:59.318Z,87.57
2022-11-25T12:45:12.555Z,94.93
2022-11-25T12:47:39.629Z,96.03
2022-11-25T12:50:14.265Z,87.35
2022-11-25T12:53:09.179Z,93.50
2022-11-25T12:55:41.584Z,98.60
2022-11-25T12:58:45.433Z,96.65
2022-11-25T13:01:37.281Z,86.82
2022-11-25T13:04:37.539Z,91.13
2022-11-25T13:07:39.961Z,93.70
2022-11-25T13:10:19.119Z,87.53
2022-11-25T13:13:20.068Z,97.82
2022-11-25T13:15:51.816Z,87.43
2022-11-25T13:18:23.902Z,82.88
2022-11-25T13:21:05.342Z,78.65
2022-11-25T13:24:01.052Z,76.70
2022-11-25T13:26:36.144Z,89.57
2022-11-25T13:29:28.199Z,89.70
2022-11-25T13:32:24.324Z,98.15
2022-11-25T13:34:51.533Z,105.35
2022-11-25T13:37:40.716Z,102.55
2022-11-25T13:40:26.488Z,101.07
2022-11-25T13:43:00.537Z,98.80
2022-11-25T13:45:37.596Z,102.43
2022-11-25T13:48:26.281Z,100.55
2022-11-25T13:51:21.093Z,94.22
2022-11-25T13:54:06.724Z,96.47
2022-11-25T13:56:36.873Z,87.50
2022-11-25T13:59:15.702Z,86.88
2022-11-25T14:02:27.944Z,92.32
2022-11-25T14:05:41.701Z,97.88
2022-11-25T14:08:32.772Z,95.75
2022-11-25T14:11:49.796Z,107.13
2022-11-25T14:14:29.646Z,110.45
2022-11-25T14:17:05.715Z,123.70
2022-11-25T14:20:14.661Z,110.45
2022-11-25T14:23:22.425Z,115.85
2022-11-25T14:26:01.713Z,117.90
2022-11-25T14:29:03.803Z,117.22
2022-11-25T14:31:40.416Z,120.45
2022-11-25T14:34:24.466Z,116.18
2022-11-25T14:37:10.642Z,111.60
2022-11-25T14:40:04.091Z,104.63
2022-11-25T14:42:39.876Z,122.57
2022-11-25T14:45:30.433Z,116.65
2022-11-25T14:47:57.953Z,109.47
2022-11-25T14:50:34.571Z,100.50
2022-11-25T14:53:09.931Z,110.72
2022-11-25T14:55:38.023Z,106.38
2022-11-25T14:58:05.219Z,111.15
2022-11-25T15:00:32.406Z,120.43
2022-11-25T15:03:03.671Z,113.53
2022-11-25T15:05:41.001Z,106.40
2022-11-25T15:08:08.010Z,108.30
2022-11-25T15:11:00.116Z,106.68
2022-11-25T15:13:34.602Z,111.57
2022-11-25T15:16:21.160Z,114.65
2022-11-25T15:18:53.414Z,106.38
2022-11-25T15:21:29.108Z,99.55
2022-11-25T15:23:56.539Z,100.57
2022-11-25T15:26:29.658Z,104.95
2022-11-25T15:29:14.213Z,103.35
2022-11-25T15:31:45.782Z,104.05
2022-11-25T15:34:15.388Z,109.72
2022-11-25T15:36:42.578Z,122.53
2022-11-25T15:39:19.925Z,114.53
2022-11-25T15:41:56.058Z,115.10
2022-11-25T15:44:29.476Z,120.28
2022-11-25T15:47:08.048Z,123.45
2022-11-25T15:49:36.641Z,123.72
2022-11-25T15:52:17.539Z,129.93
2022-11-25T15:54:51.216Z,121.95
2022-11-25T15:57:33.167Z,114.50
2022-11-25T16:00:00.152Z,120.30
2022-11-25T16:02:42.396Z,119.03
2022-11-25T16:05:18.654Z,119.20
2022-11-25T16:07:52.069Z,116.45
2022-11-25T16:10:45.311Z,112.75
2022-11-25T16:13:24.040Z,126.40
2022-11-25T16:16:12.057Z,122.47
2022-11-25T16:19:06.082Z,117.65
2022-11-25T16:21:35.949Z,111.03
2022-11-25T16:24:05.943Z,126.00
2022-11-25T16:27:01.908Z,110.97
2022-11-25T16:29:39.458Z,107.43
2022-11-25T16:32:17.346Z,124.80
2022-11-25T16:34:45.828Z,128.05
2022-11-25T16:37:13.169Z,133.45
2022-11-25T16:39:40.509Z,143.00
2022-11-25T16:42:10.345Z,139.30
2022-11-25T16:44:37.919Z,136.40
2022-11-25T16:47:05.133Z,121.53
2022-11-25T16:49:32.423Z,108.53
2022-11-25T16:51:59.526Z,106.25
2022-11-25T16:54:26.618Z,106.05
2022-11-25T16:56:55.423Z,111.65
2022-11-25T16:59:36.759Z,111.55
2022-11-25T17:02:12.952Z,85.32
2022-11-25T17:04:40.171Z,103.32
2022-11-25T17:10:00.713Z,104.70
2022-11-25T17:12:35.052Z,105.68
2022-11-25T17:15:06.680Z,110.43
2022-11-25T17:17:35.104Z,104.45
2022-11-25T17:20:02.365Z,107.97
2022-11-25T17:22:38.730Z,110.95
2022-11-25T17:25:06.687Z,98.78
2022-11-25T17:27:34.335Z,111.57
2022-11-25T17:30:04.490Z,106.97
2022-11-25T17:32:31.958Z,100.63
2022-11-25T17:34:59.679Z,105.72
2022-11-25T17:37:28.783Z,111.07
2022-11-25T17:39:55.834Z,104.88
2022-11-25T17:42:32.558Z,101.88
2022-11-25T17:45:00.597Z,105.18
2022-11-25T17:47:27.663Z,96.68
2022-11-25T17:49:54.744Z,95.68
2022-11-25T17:52:21.865Z,94.65
2022-11-25T17:54:48.895Z,101.35
2022-11-25T17:57:22.788Z,98.80
2022-11-25T17:59:50.120Z,109.65
2022-11-25T18:02:20.966Z,118.55
2022-11-25T18:04:51.547Z,105.50
2022-11-25T18:07:19.176Z,102.63
2022-11-25T18:09:46.589Z,101.15
2022-11-25T18:12:37.726Z,101.20
2022-11-25T18:15:09.968Z,103.28
2022-11-25T18:17:38.023Z,100.93
2022-11-25T18:20:23.443Z,101.15
2022-11-25T18:22:52.927Z,101.93
2022-11-25T18:25:29.447Z,89.93
2022-11-25T18:27:58.199Z,86.40
2022-11-25T18:30:34.723Z,80.30
2022-11-25T18:33:02.372Z,85.22
2022-11-25T18:35:36.489Z,77.72
2022-11-25T18:38:04.927Z,91.85
2022-11-25T18:40:32.791Z,88.10
2022-11-25T18:43:04.684Z,87.60
2022-11-25T18:45:39.437Z,89.05
2022-11-25T18:48:26.612Z,97.25
2022-11-25T18:50:56.186Z,111.43
2022-11-25T18:53:23.754Z,110.38
2022-11-25T18:55:53.148Z,90.88
2022-11-25T18:58:24.106Z,81.95
2022-11-25T19:00:58.015Z,89.13
2022-11-25T19:03:26.320Z,90.30
2022-11-25T19:05:59.401Z,92.30
2022-11-25T19:08:26.464Z,93.63
2022-11-25T19:10:53.656Z,85.28
2022-11-25T19:13:32.825Z,84.38
2022-11-25T19:16:21.578Z,79.57
2022-11-25T19:18:49.311Z,84.97
2022-11-25T19:21:18.931Z,78.68
2022-11-25T19:23:46.307Z,75.80
2022-11-25T19:26:43.137Z,79.00
2022-11-25T19:29:29.723Z,84.75
2022-11-25T19:31:58.709Z,76.70
2022-11-25T19:34:35.471Z,74.45
2022-11-25T19:37:05.368Z,83.20
2022-11-25T19:39:36.424Z,93.38
2022-11-25T19:42:03.835Z,87.05
2022-11-25T19:44:30.846Z,92.65
2022-11-25T19:49:46.022Z,82.90
2022-11-25T19:52:28.204Z,81.57
2022-11-25T19:54:55.299Z,96.22
2022-11-25T19:57:27.612Z,92.00
2022-11-25T19:59:54.735Z,82.22
2022-11-25T20:02:25.989Z,83.00
2022-11-25T20:04:57.309Z,97.87
2022-11-25T20:07:27.201Z,103.33
2022-11-25T20:09:56.190Z,115.05
2022-11-25T20:12:30.394Z,84.47
2022-11-25T20:14:57.371Z,83.22
2022-11-25T20:17:36.667Z,83.75
2022-11-25T20:20:23.471Z,82.43
2022-11-25T20:23:16.323Z,84.10
2022-11-25T20:25:46.858Z,93.97
2022-11-25T20:28:19.105Z,84.72
2022-11-25T20:33:18.753Z,92.25
2022-11-25T20:35:52.698Z,86.28
2022-11-25T20:38:24.395Z,79.00
2022-11-25T20:40:55.938Z,78.28
2022-11-25T20:43:38.839Z,83.07
2022-11-25T20:46:12.020Z,96.95
2022-11-25T20:48:39.461Z,106.03
2022-11-25T20:51:14.128Z,78.13
2022-11-25T20:53:46.124Z,78.70
2022-11-25T20:56:17.849Z,86.07
2022-11-25T20:58:46.651Z,89.63
2022-11-25T21:01:15.084Z,94.50
2022-11-25T21:03:46.404Z,94.13
2022-11-25T21:06:25.733Z,108.90
2022-11-25T21:08:58.249Z,87.88
2022-11-25T21:11:27.785Z,122.15
2022-11-25T21:13:57.344Z,110.68
2022-11-25T21:16:25.738Z,106.53
2022-11-25T21:18:55.197Z,118.90
2022-11-25T21:21:35.642Z,117.57
2022-11-25T21:24:22.797Z,119.80
2022-11-25T21:26:51.158Z,105.22
2022-11-25T21:29:21.730Z,127.55
2022-11-25T21:31:51.005Z,120.65
2022-11-25T21:34:18.092Z,124.25
2022-11-25T21:36:48.854Z,116.07
2022-11-25T21:39:34.491Z,129.80
2022-11-25T21:42:07.276Z,107.07
2022-11-25T21:44:41.309Z,103.53
2022-11-25T21:47:16.603Z,97.55
2022-11-25T21:49:44.472Z,99.53
2022-11-25T21:52:11.772Z,92.82
2022-11-25T21:54:39.491Z,93.13
2022-11-25T21:57:15.075Z,89.53
2022-11-25T21:59:44.751Z,88.60
2022-11-25T22:02:24.290Z,87.80
2022-11-25T22:04:52.388Z,99.57
2022-11-25T22:07:19.521Z,99.60
2022-11-25T22:09:46.652Z,112.82
2022-11-25T22:12:30.480Z,124.45
2022-11-25T22:15:01.476Z,127.00
2022-11-25T22:17:32.277Z,134.57
2022-11-25T22:19:59.409Z,132.93
2022-11-25T22:22:31.525Z,120.32
2022-11-25T22:24:58.636Z,142.05
2022-11-25T22:27:28.668Z,134.18
2022-11-25T22:29:56.092Z,131.27
2022-11-25T22:32:25.625Z,134.82
2022-11-25T22:34:52.685Z,135.95
2022-11-25T22:37:24.458Z,125.55
2022-11-25T22:39:52.492Z,146.80
2022-11-25T22:42:32.494Z,143.23
2022-11-25T22:45:03.224Z,137.52
2022-11-25T22:48:03.278Z,139.85
2022-11-25T22:50:32.859Z,129.40
2022-11-25T22:53:01.083Z,123.30
2022-11-25T22:55:33.488Z,117.65
2022-11-25T22:58:01.839Z,118.85
2022-11-25T23:00:34.813Z,117.82
2022-11-25T23:03:06.615Z,110.93
2022-11-25T23:05:39.506Z,114.85
2022-11-25T23:08:18.075Z,117.05
2022-11-25T23:10:45.987Z,117.65
2022-11-25T23:13:14.589Z,121.47
2022-11-25T23:16:00.380Z,110.88
2022-11-25T23:18:41.148Z,116.43
2022-11-25T23:21:18.329Z,111.80
2022-11-25T23:23:45.595Z,116.90
2022-11-25T23:26:13.932Z,119.00
2022-11-25T23:28:41.175Z,119.43
2022-11-25T23:31:15.212Z,111.75
2022-11-25T23:33:46.462Z,118.47
2022-11-25T23:36:25.545Z,123.68
2022-11-25T23:38:58.885Z,125.80
2022-11-25T23:41:32.238Z,117.72
2022-11-25T23:44:16.997Z,123.70
2022-11-25T23:46:44.823Z,119.10
2022-11-25T23:49:31.424Z,110.55
2022-11-25T23:52:07.479Z,110.32
2022-11-25T23:54:46.866Z,110.88
2022-11-25T23:57:18.982Z,112.25
2022-11-25T23:59:49.284Z,108.10
